sensor_id;sensor_type;location;lat;lon;timestamp;temperature;humidity
12704;DHT22;6416;52.182;7.650;2023-06-24T00:01:08;21.80;55.40
12704;DHT22;6416;52.182;7.650;2023-06-24T00:03:33;21.80;55.60
12704;DHT22;6416;52.182;7.650;2023-06-24T00:05:59;21.70;55.60
12704;DHT22;6416;52.182;7.650;2023-06-24T00:08:24;21.70;56.40
12704;DHT22;6416;52.182;7.650;2023-06-24T00:10:50;21.70;55.70
12704;DHT22;6416;52.182;7.650;2023-06-24T00:13:16;21.60;55.80
12704;DHT22;6416;52.182;7.650;2023-06-24T00:15:41;21.50;55.90
12704;DHT22;6416;52.182;7.650;2023-06-24T00:18:07;21.50;56.00
12704;DHT22;6416;52.182;7.650;2023-06-24T00:20:32;21.50;56.10
12704;DHT22;6416;52.182;7.650;2023-06-24T00:22:58;21.40;56.10
12704;DHT22;6416;52.182;7.650;2023-06-24T00:25:23;21.40;56.30
12704;DHT22;6416;52.182;7.650;2023-06-24T00:27:49;21.30;56.40
12704;DHT22;6416;52.182;7.650;2023-06-24T00:30:14;21.30;56.50
12704;DHT22;6416;52.182;7.650;2023-06-24T00:32:40;21.20;56.50
12704;DHT22;6416;52.182;7.650;2023-06-24T00:35:05;21.20;56.70
12704;DHT22;6416;52.182;7.650;2023-06-24T00:37:31;21.10;56.70
12704;DHT22;6416;52.182;7.650;2023-06-24T00:39:56;21.00;56.80
12704;DHT22;6416;52.182;7.650;2023-06-24T00:42:22;21.00;56.90
12704;DHT22;6416;52.182;7.650;2023-06-24T00:44:48;20.90;56.90
12704;DHT22;6416;52.182;7.650;2023-06-24T00:47:14;20.90;57.00
12704;DHT22;6416;52.182;7.650;2023-06-24T00:49:39;20.80;57.00
12704;DHT22;6416;52.182;7.650;2023-06-24T00:52:05;20.80;57.10
12704;DHT22;6416;52.182;7.650;2023-06-24T00:54:30;20.70;57.20
12704;DHT22;6416;52.182;7.650;2023-06-24T00:56:57;20.70;57.30
12704;DHT22;6416;52.182;7.650;2023-06-24T00:59:23;20.70;57.40
12704;DHT22;6416;52.182;7.650;2023-06-24T01:01:50;20.60;57.50
12704;DHT22;6416;52.182;7.650;2023-06-24T01:04:16;20.60;57.70
12704;DHT22;6416;52.182;7.650;2023-06-24T01:06:41;20.60;57.70
12704;DHT22;6416;52.182;7.650;2023-06-24T01:09:07;20.50;57.70
12704;DHT22;6416;52.182;7.650;2023-06-24T01:11:32;20.50;57.70
12704;DHT22;6416;52.182;7.650;2023-06-24T01:13:58;20.50;57.80
12704;DHT22;6416;52.182;7.650;2023-06-24T01:18:52;20.40;57.90
12704;DHT22;6416;52.182;7.650;2023-06-24T01:21:42;20.40;58.40
12704;DHT22;6416;52.182;7.650;2023-06-24T01:24:29;20.40;59.40
12704;DHT22;6416;52.182;7.650;2023-06-24T01:30:10;20.30;59.40
12704;DHT22;6416;52.182;7.650;2023-06-24T01:32:45;20.30;59.00
12704;DHT22;6416;52.182;7.650;2023-06-24T01:35:19;20.20;59.00
12704;DHT22;6416;52.182;7.650;2023-06-24T01:37:48;20.20;59.00
12704;DHT22;6416;52.182;7.650;2023-06-24T01:42:50;20.10;59.60
12704;DHT22;6416;52.182;7.650;2023-06-24T01:45:27;20.00;58.50
12704;DHT22;6416;52.182;7.650;2023-06-24T01:48:03;20.10;59.80
12704;DHT22;6416;52.182;7.650;2023-06-24T01:50:32;20.00;59.60
12704;DHT22;6416;52.182;7.650;2023-06-24T01:52:58;20.00;58.90
12704;DHT22;6416;52.182;7.650;2023-06-24T01:55:27;19.90;58.90
12704;DHT22;6416;52.182;7.650;2023-06-24T01:57:54;19.90;59.10
12704;DHT22;6416;52.182;7.650;2023-06-24T02:00:23;19.90;59.20
12704;DHT22;6416;52.182;7.650;2023-06-24T02:02:50;19.80;59.20
12704;DHT22;6416;52.182;7.650;2023-06-24T02:05:17;19.80;59.40
12704;DHT22;6416;52.182;7.650;2023-06-24T02:07:46;19.70;59.30
12704;DHT22;6416;52.182;7.650;2023-06-24T02:10:12;19.70;59.50
12704;DHT22;6416;52.182;7.650;2023-06-24T02:12:39;19.70;59.40
12704;DHT22;6416;52.182;7.650;2023-06-24T02:15:06;19.70;59.50
12704;DHT22;6416;52.182;7.650;2023-06-24T02:17:33;19.60;59.70
12704;DHT22;6416;52.182;7.650;2023-06-24T02:19:59;19.60;59.70
12704;DHT22;6416;52.182;7.650;2023-06-24T02:22:25;19.60;59.70
12704;DHT22;6416;52.182;7.650;2023-06-24T02:24:51;19.60;59.80
12704;DHT22;6416;52.182;7.650;2023-06-24T02:27:17;19.50;59.80
12704;DHT22;6416;52.182;7.650;2023-06-24T02:29:44;19.50;59.90
12704;DHT22;6416;52.182;7.650;2023-06-24T02:32:10;19.40;60.00
12704;DHT22;6416;52.182;7.650;2023-06-24T02:34:35;19.40;60.10
12704;DHT22;6416;52.182;7.650;2023-06-24T02:37:01;19.40;60.20
12704;DHT22;6416;52.182;7.650;2023-06-24T02:39:27;19.30;60.10
12704;DHT22;6416;52.182;7.650;2023-06-24T02:41:52;19.30;60.20
12704;DHT22;6416;52.182;7.650;2023-06-24T02:44:18;19.30;60.30
12704;DHT22;6416;52.182;7.650;2023-06-24T02:46:45;19.30;60.40
12704;DHT22;6416;52.182;7.650;2023-06-24T02:49:12;19.30;60.70
12704;DHT22;6416;52.182;7.650;2023-06-24T02:51:39;19.20;60.60
12704;DHT22;6416;52.182;7.650;2023-06-24T02:54:05;19.20;60.60
12704;DHT22;6416;52.182;7.650;2023-06-24T02:56:31;19.20;60.60
12704;DHT22;6416;52.182;7.650;2023-06-24T02:58:57;19.20;60.70
12704;DHT22;6416;52.182;7.650;2023-06-24T03:01:26;19.10;60.70
12704;DHT22;6416;52.182;7.650;2023-06-24T03:03:53;19.10;60.80
12704;DHT22;6416;52.182;7.650;2023-06-24T03:06:21;19.10;61.00
12704;DHT22;6416;52.182;7.650;2023-06-24T03:08:48;19.10;61.00
12704;DHT22;6416;52.182;7.650;2023-06-24T03:11:14;19.00;61.00
12704;DHT22;6416;52.182;7.650;2023-06-24T03:13:40;19.00;61.00
12704;DHT22;6416;52.182;7.650;2023-06-24T03:16:05;19.00;61.10
12704;DHT22;6416;52.182;7.650;2023-06-24T03:18:31;19.00;61.20
12704;DHT22;6416;52.182;7.650;2023-06-24T03:20:56;19.00;61.30
12704;DHT22;6416;52.182;7.650;2023-06-24T03:23:22;18.90;61.30
12704;DHT22;6416;52.182;7.650;2023-06-24T03:25:47;18.90;61.30
12704;DHT22;6416;52.182;7.650;2023-06-24T03:28:13;18.90;61.40
12704;DHT22;6416;52.182;7.650;2023-06-24T03:30:38;18.90;61.60
12704;DHT22;6416;52.182;7.650;2023-06-24T03:33:04;18.90;61.60
12704;DHT22;6416;52.182;7.650;2023-06-24T03:35:29;18.90;61.70
12704;DHT22;6416;52.182;7.650;2023-06-24T03:37:55;18.90;61.80
12704;DHT22;6416;52.182;7.650;2023-06-24T03:40:20;18.90;62.00
12704;DHT22;6416;52.182;7.650;2023-06-24T03:42:46;18.90;62.00
12704;DHT22;6416;52.182;7.650;2023-06-24T03:45:11;18.90;62.20
12704;DHT22;6416;52.182;7.650;2023-06-24T03:47:37;18.90;62.20
12704;DHT22;6416;52.182;7.650;2023-06-24T03:50:02;18.90;62.30
12704;DHT22;6416;52.182;7.650;2023-06-24T03:52:28;18.90;62.40
12704;DHT22;6416;52.182;7.650;2023-06-24T03:54:53;18.90;62.50
12704;DHT22;6416;52.182;7.650;2023-06-24T03:57:19;18.90;62.50
12704;DHT22;6416;52.182;7.650;2023-06-24T03:59:44;18.90;62.70
12704;DHT22;6416;52.182;7.650;2023-06-24T04:02:10;18.90;62.80
12704;DHT22;6416;52.182;7.650;2023-06-24T04:04:36;19.00;63.00
12704;DHT22;6416;52.182;7.650;2023-06-24T04:07:01;19.00;63.00
12704;DHT22;6416;52.182;7.650;2023-06-24T04:09:29;19.00;63.10
12704;DHT22;6416;52.182;7.650;2023-06-24T04:11:54;19.10;63.40
12704;DHT22;6416;52.182;7.650;2023-06-24T04:14:20;19.10;63.30
12704;DHT22;6416;52.182;7.650;2023-06-24T04:16:45;19.10;63.30
12704;DHT22;6416;52.182;7.650;2023-06-24T04:19:11;19.20;63.50
12704;DHT22;6416;52.182;7.650;2023-06-24T04:21:36;19.30;63.70
12704;DHT22;6416;52.182;7.650;2023-06-24T04:24:02;19.30;63.60
12704;DHT22;6416;52.182;7.650;2023-06-24T04:26:27;19.40;63.70
12704;DHT22;6416;52.182;7.650;2023-06-24T04:28:53;19.50;63.80
12704;DHT22;6416;52.182;7.650;2023-06-24T04:31:18;19.60;63.90
12704;DHT22;6416;52.182;7.650;2023-06-24T04:33:44;19.60;63.80
12704;DHT22;6416;52.182;7.650;2023-06-24T04:36:09;19.70;63.80
12704;DHT22;6416;52.182;7.650;2023-06-24T04:38:38;19.70;63.70
12704;DHT22;6416;52.182;7.650;2023-06-24T04:41:03;19.80;64.10
12704;DHT22;6416;52.182;7.650;2023-06-24T04:43:29;19.90;63.80
12704;DHT22;6416;52.182;7.650;2023-06-24T04:45:54;19.90;63.70
12704;DHT22;6416;52.182;7.650;2023-06-24T04:48:20;20.00;63.80
12704;DHT22;6416;52.182;7.650;2023-06-24T04:50:45;20.10;63.80
12704;DHT22;6416;52.182;7.650;2023-06-24T04:53:11;20.10;63.90
12704;DHT22;6416;52.182;7.650;2023-06-24T04:55:36;20.20;63.90
12704;DHT22;6416;52.182;7.650;2023-06-24T04:58:02;20.30;64.00
12704;DHT22;6416;52.182;7.650;2023-06-24T05:00:27;20.40;63.90
12704;DHT22;6416;52.182;7.650;2023-06-24T05:02:53;20.60;64.00
12704;DHT22;6416;52.182;7.650;2023-06-24T05:05:18;20.70;64.00
12704;DHT22;6416;52.182;7.650;2023-06-24T05:07:44;20.80;64.00
12704;DHT22;6416;52.182;7.650;2023-06-24T05:10:09;21.00;64.20
12704;DHT22;6416;52.182;7.650;2023-06-24T05:12:35;21.10;64.30
12704;DHT22;6416;52.182;7.650;2023-06-24T05:15:00;21.30;64.30
12704;DHT22;6416;52.182;7.650;2023-06-24T05:17:26;21.40;64.10
12704;DHT22;6416;52.182;7.650;2023-06-24T05:19:51;21.60;63.90
12704;DHT22;6416;52.182;7.650;2023-06-24T05:22:17;21.70;63.40
12704;DHT22;6416;52.182;7.650;2023-06-24T05:24:42;21.80;63.10
12704;DHT22;6416;52.182;7.650;2023-06-24T05:27:08;21.80;62.70
12704;DHT22;6416;52.182;7.650;2023-06-24T05:29:34;21.80;62.60
12704;DHT22;6416;52.182;7.650;2023-06-24T05:31:59;21.90;63.00
12704;DHT22;6416;52.182;7.650;2023-06-24T05:34:25;22.00;63.40
12704;DHT22;6416;52.182;7.650;2023-06-24T05:36:51;22.10;63.60
12704;DHT22;6416;52.182;7.650;2023-06-24T05:39:17;22.20;63.70
12704;DHT22;6416;52.182;7.650;2023-06-24T05:41:42;22.40;63.90
12704;DHT22;6416;52.182;7.650;2023-06-24T05:44:09;22.70;64.20
12704;DHT22;6416;52.182;7.650;2023-06-24T05:46:34;22.90;64.20
12704;DHT22;6416;52.182;7.650;2023-06-24T05:49:00;23.10;64.10
12704;DHT22;6416;52.182;7.650;2023-06-24T05:51:25;23.40;63.90
12704;DHT22;6416;52.182;7.650;2023-06-24T05:53:50;23.70;63.70
12704;DHT22;6416;52.182;7.650;2023-06-24T05:56:16;23.90;63.50
12704;DHT22;6416;52.182;7.650;2023-06-24T05:58:41;24.20;63.40
12704;DHT22;6416;52.182;7.650;2023-06-24T06:01:08;24.50;63.30
12704;DHT22;6416;52.182;7.650;2023-06-24T06:03:34;24.70;62.90
12704;DHT22;6416;52.182;7.650;2023-06-24T06:05:59;25.00;62.80
12704;DHT22;6416;52.182;7.650;2023-06-24T06:08:25;25.20;62.60
12704;DHT22;6416;52.182;7.650;2023-06-24T06:10:50;25.40;62.30
12704;DHT22;6416;52.182;7.650;2023-06-24T06:13:16;25.80;62.10
12704;DHT22;6416;52.182;7.650;2023-06-24T06:15:41;26.00;61.60
12704;DHT22;6416;52.182;7.650;2023-06-24T06:18:07;26.30;61.40
12704;DHT22;6416;52.182;7.650;2023-06-24T06:20:32;26.50;61.00
12704;DHT22;6416;52.182;7.650;2023-06-24T06:22:58;26.80;60.80
12704;DHT22;6416;52.182;7.650;2023-06-24T06:25:23;27.00;60.60
12704;DHT22;6416;52.182;7.650;2023-06-24T06:27:49;27.30;60.00
12704;DHT22;6416;52.182;7.650;2023-06-24T06:30:15;27.60;59.00
12704;DHT22;6416;52.182;7.650;2023-06-24T06:32:40;27.80;58.10
12704;DHT22;6416;52.182;7.650;2023-06-24T06:35:06;28.00;57.00
12704;DHT22;6416;52.182;7.650;2023-06-24T06:37:32;28.10;56.70
12704;DHT22;6416;52.182;7.650;2023-06-24T06:39:57;28.10;56.20
12704;DHT22;6416;52.182;7.650;2023-06-24T06:42:23;28.10;55.70
12704;DHT22;6416;52.182;7.650;2023-06-24T06:44:48;28.10;55.40
12704;DHT22;6416;52.182;7.650;2023-06-24T06:47:14;28.10;55.60
12704;DHT22;6416;52.182;7.650;2023-06-24T06:49:39;28.20;55.70
12704;DHT22;6416;52.182;7.650;2023-06-24T06:52:06;28.30;55.80
12704;DHT22;6416;52.182;7.650;2023-06-24T06:54:31;28.50;55.60
12704;DHT22;6416;52.182;7.650;2023-06-24T06:57:03;28.60;55.50
12704;DHT22;6416;52.182;7.650;2023-06-24T06:59:29;28.90;55.10
12704;DHT22;6416;52.182;7.650;2023-06-24T07:01:55;29.10;55.50
12704;DHT22;6416;52.182;7.650;2023-06-24T07:04:20;29.40;55.00
12704;DHT22;6416;52.182;7.650;2023-06-24T07:06:46;29.70;54.90
12704;DHT22;6416;52.182;7.650;2023-06-24T07:09:11;29.90;54.00
12704;DHT22;6416;52.182;7.650;2023-06-24T07:11:37;30.10;53.30
12704;DHT22;6416;52.182;7.650;2023-06-24T07:14:02;30.40;52.80
12704;DHT22;6416;52.182;7.650;2023-06-24T07:16:28;30.60;52.90
12704;DHT22;6416;52.182;7.650;2023-06-24T07:18:53;30.80;52.60
12704;DHT22;6416;52.182;7.650;2023-06-24T07:21:19;31.10;52.50
12704;DHT22;6416;52.182;7.650;2023-06-24T07:23:45;31.40;52.20
12704;DHT22;6416;52.182;7.650;2023-06-24T07:26:10;31.70;51.50
12704;DHT22;6416;52.182;7.650;2023-06-24T07:28:35;31.90;51.90
12704;DHT22;6416;52.182;7.650;2023-06-24T07:31:01;32.20;51.40
12704;DHT22;6416;52.182;7.650;2023-06-24T07:33:27;32.50;51.30
12704;DHT22;6416;52.182;7.650;2023-06-24T07:35:52;32.80;50.80
12704;DHT22;6416;52.182;7.650;2023-06-24T07:38:18;33.10;49.80
12704;DHT22;6416;52.182;7.650;2023-06-24T07:40:43;33.30;49.30
12704;DHT22;6416;52.182;7.650;2023-06-24T07:43:09;33.60;48.90
12704;DHT22;6416;52.182;7.650;2023-06-24T07:45:34;33.80;48.50
12704;DHT22;6416;52.182;7.650;2023-06-24T07:47:59;34.00;48.00
12704;DHT22;6416;52.182;7.650;2023-06-24T07:50:25;34.30;47.80
12704;DHT22;6416;52.182;7.650;2023-06-24T07:52:50;34.50;47.20
12704;DHT22;6416;52.182;7.650;2023-06-24T07:55:16;34.80;47.30
12704;DHT22;6416;52.182;7.650;2023-06-24T07:57:45;35.10;46.90
12704;DHT22;6416;52.182;7.650;2023-06-24T08:00:11;35.40;46.20
12704;DHT22;6416;52.182;7.650;2023-06-24T08:02:36;35.60;45.50
12704;DHT22;6416;52.182;7.650;2023-06-24T08:05:02;35.90;44.80
12704;DHT22;6416;52.182;7.650;2023-06-24T08:07:28;36.00;43.80
12704;DHT22;6416;52.182;7.650;2023-06-24T08:09:53;36.10;43.20
12704;DHT22;6416;52.182;7.650;2023-06-24T08:12:19;36.30;43.70
12704;DHT22;6416;52.182;7.650;2023-06-24T08:14:44;36.50;43.20
12704;DHT22;6416;52.182;7.650;2023-06-24T08:17:09;36.60;43.60
12704;DHT22;6416;52.182;7.650;2023-06-24T08:19:35;36.80;42.30
12704;DHT22;6416;52.182;7.650;2023-06-24T08:22:00;37.00;42.20
12704;DHT22;6416;52.182;7.650;2023-06-24T08:24:26;37.20;41.80
12704;DHT22;6416;52.182;7.650;2023-06-24T08:26:51;37.40;41.40
12704;DHT22;6416;52.182;7.650;2023-06-24T08:29:17;37.60;41.70
12704;DHT22;6416;52.182;7.650;2023-06-24T08:31:42;37.80;41.10
12704;DHT22;6416;52.182;7.650;2023-06-24T08:34:08;37.90;40.30
12704;DHT22;6416;52.182;7.650;2023-06-24T08:36:33;38.10;40.40
12704;DHT22;6416;52.182;7.650;2023-06-24T08:38:59;38.20;39.20
12704;DHT22;6416;52.182;7.650;2023-06-24T08:41:24;38.40;38.80
12704;DHT22;6416;52.182;7.650;2023-06-24T08:43:50;38.50;38.80
12704;DHT22;6416;52.182;7.650;2023-06-24T08:46:16;38.60;38.20
12704;DHT22;6416;52.182;7.650;2023-06-24T08:48:45;38.80;38.60
12704;DHT22;6416;52.182;7.650;2023-06-24T08:51:14;39.00;38.30
12704;DHT22;6416;52.182;7.650;2023-06-24T08:53:42;39.20;37.40
12704;DHT22;6416;52.182;7.650;2023-06-24T08:56:08;39.40;37.60
12704;DHT22;6416;52.182;7.650;2023-06-24T08:58:34;39.60;38.10
12704;DHT22;6416;52.182;7.650;2023-06-24T09:01:03;39.90;38.10
12704;DHT22;6416;52.182;7.650;2023-06-24T09:03:29;40.20;37.80
12704;DHT22;6416;52.182;7.650;2023-06-24T09:05:54;40.40;37.00
12704;DHT22;6416;52.182;7.650;2023-06-24T09:08:21;40.70;36.00
12704;DHT22;6416;52.182;7.650;2023-06-24T09:10:52;40.70;35.20
12704;DHT22;6416;52.182;7.650;2023-06-24T09:13:18;40.70;33.70
12704;DHT22;6416;52.182;7.650;2023-06-24T09:15:44;40.70;34.50
12704;DHT22;6416;52.182;7.650;2023-06-24T09:18:09;40.70;33.40
12704;DHT22;6416;52.182;7.650;2023-06-24T09:20:35;40.70;33.20
12704;DHT22;6416;52.182;7.650;2023-06-24T09:23:02;40.70;33.90
12704;DHT22;6416;52.182;7.650;2023-06-24T09:25:29;40.80;33.70
12704;DHT22;6416;52.182;7.650;2023-06-24T09:27:54;40.90;33.10
12704;DHT22;6416;52.182;7.650;2023-06-24T09:32:50;41.00;33.10
12704;DHT22;6416;52.182;7.650;2023-06-24T09:35:18;41.10;33.10
12704;DHT22;6416;52.182;7.650;2023-06-24T09:37:56;41.20;33.50
12704;DHT22;6416;52.182;7.650;2023-06-24T09:40:22;41.20;31.30
12704;DHT22;6416;52.182;7.650;2023-06-24T09:43:06;41.30;32.50
12704;DHT22;6416;52.182;7.650;2023-06-24T09:45:31;41.40;31.20
12704;DHT22;6416;52.182;7.650;2023-06-24T09:47:57;41.50;31.40
12704;DHT22;6416;52.182;7.650;2023-06-24T09:50:23;41.50;31.20
12704;DHT22;6416;52.182;7.650;2023-06-24T09:52:51;41.40;30.90
12704;DHT22;6416;52.182;7.650;2023-06-24T09:55:18;41.20;31.20
12704;DHT22;6416;52.182;7.650;2023-06-24T09:57:45;41.00;31.30
12704;DHT22;6416;52.182;7.650;2023-06-24T10:00:15;41.00;31.50
12704;DHT22;6416;52.182;7.650;2023-06-24T10:02:41;40.90;31.50
12704;DHT22;6416;52.182;7.650;2023-06-24T10:05:07;40.90;31.40
12704;DHT22;6416;52.182;7.650;2023-06-24T10:07:34;40.90;31.70
12704;DHT22;6416;52.182;7.650;2023-06-24T10:10:03;40.70;31.00
12704;DHT22;6416;52.182;7.650;2023-06-24T10:12:28;40.80;31.10
12704;DHT22;6416;52.182;7.650;2023-06-24T10:14:54;40.70;31.60
12704;DHT22;6416;52.182;7.650;2023-06-24T10:17:20;40.90;32.10
12704;DHT22;6416;52.182;7.650;2023-06-24T10:19:45;41.10;32.10
12704;DHT22;6416;52.182;7.650;2023-06-24T10:22:11;41.20;31.40
12704;DHT22;6416;52.182;7.650;2023-06-24T10:24:41;41.20;31.10
12704;DHT22;6416;52.182;7.650;2023-06-24T10:27:09;41.10;30.30
12704;DHT22;6416;52.182;7.650;2023-06-24T10:29:38;40.90;30.70
12704;DHT22;6416;52.182;7.650;2023-06-24T10:32:08;40.70;30.50
12704;DHT22;6416;52.182;7.650;2023-06-24T10:34:42;40.60;30.70
12704;DHT22;6416;52.182;7.650;2023-06-24T10:37:08;40.80;31.90
12704;DHT22;6416;52.182;7.650;2023-06-24T10:39:50;41.00;31.80
12704;DHT22;6416;52.182;7.650;2023-06-24T10:42:40;41.30;31.20
12704;DHT22;6416;52.182;7.650;2023-06-24T10:47:38;42.00;31.10
12704;DHT22;6416;52.182;7.650;2023-06-24T10:50:05;42.20;31.20
12704;DHT22;6416;52.182;7.650;2023-06-24T10:52:31;42.40;29.80
12704;DHT22;6416;52.182;7.650;2023-06-24T10:54:57;42.40;29.60
12704;DHT22;6416;52.182;7.650;2023-06-24T10:57:27;42.30;29.50
12704;DHT22;6416;52.182;7.650;2023-06-24T10:59:54;42.30;29.90
12704;DHT22;6416;52.182;7.650;2023-06-24T11:02:25;42.30;29.70
12704;DHT22;6416;52.182;7.650;2023-06-24T11:04:56;42.30;29.60
12704;DHT22;6416;52.182;7.650;2023-06-24T11:07:26;42.40;29.50
12704;DHT22;6416;52.182;7.650;2023-06-24T11:09:53;42.50;29.40
12704;DHT22;6416;52.182;7.650;2023-06-24T11:12:26;42.70;29.50
12704;DHT22;6416;52.182;7.650;2023-06-24T11:15:05;43.00;29.90
12704;DHT22;6416;52.182;7.650;2023-06-24T11:17:32;43.10;28.70
12704;DHT22;6416;52.182;7.650;2023-06-24T11:19:58;43.00;28.80
12704;DHT22;6416;52.182;7.650;2023-06-24T11:22:25;43.00;28.70
12704;DHT22;6416;52.182;7.650;2023-06-24T11:24:51;42.80;28.90
12704;DHT22;6416;52.182;7.650;2023-06-24T11:27:25;42.70;28.90
12704;DHT22;6416;52.182;7.650;2023-06-24T11:29:52;42.50;28.60
12704;DHT22;6416;52.182;7.650;2023-06-24T11:32:18;42.50;28.60
12704;DHT22;6416;52.182;7.650;2023-06-24T11:34:43;42.50;29.10
12704;DHT22;6416;52.182;7.650;2023-06-24T11:37:13;42.50;29.30
12704;DHT22;6416;52.182;7.650;2023-06-24T11:39:39;42.70;29.20
12704;DHT22;6416;52.182;7.650;2023-06-24T11:42:08;42.60;28.70
12704;DHT22;6416;52.182;7.650;2023-06-24T11:44:34;42.50;28.10
12704;DHT22;6416;52.182;7.650;2023-06-24T11:47:07;42.30;28.20
12704;DHT22;6416;52.182;7.650;2023-06-24T11:49:47;42.00;27.80
12704;DHT22;6416;52.182;7.650;2023-06-24T11:52:13;41.70;27.90
12704;DHT22;6416;52.182;7.650;2023-06-24T11:54:41;41.40;27.90
12704;DHT22;6416;52.182;7.650;2023-06-24T11:57:06;41.20;28.40
12704;DHT22;6416;52.182;7.650;2023-06-24T11:59:32;41.10;28.70
12704;DHT22;6416;52.182;7.650;2023-06-24T12:01:58;40.90;28.60
12704;DHT22;6416;52.182;7.650;2023-06-24T12:04:28;40.60;28.70
12704;DHT22;6416;52.182;7.650;2023-06-24T12:06:54;40.40;28.60
12704;DHT22;6416;52.182;7.650;2023-06-24T12:09:19;40.30;29.00
12704;DHT22;6416;52.182;7.650;2023-06-24T12:11:45;40.20;29.40
12704;DHT22;6416;52.182;7.650;2023-06-24T12:14:10;40.30;29.40
12704;DHT22;6416;52.182;7.650;2023-06-24T12:16:36;40.40;29.60
12704;DHT22;6416;52.182;7.650;2023-06-24T12:19:02;40.60;29.50
12704;DHT22;6416;52.182;7.650;2023-06-24T12:21:28;40.90;29.60
12704;DHT22;6416;52.182;7.650;2023-06-24T12:23:53;41.20;29.40
12704;DHT22;6416;52.182;7.650;2023-06-24T12:26:19;41.40;29.20
12704;DHT22;6416;52.182;7.650;2023-06-24T12:28:44;41.70;29.30
12704;DHT22;6416;52.182;7.650;2023-06-24T12:31:10;42.00;29.60
12704;DHT22;6416;52.182;7.650;2023-06-24T12:33:36;42.40;28.80
12704;DHT22;6416;52.182;7.650;2023-06-24T12:36:01;42.70;28.70
12704;DHT22;6416;52.182;7.650;2023-06-24T12:38:26;43.00;28.40
12704;DHT22;6416;52.182;7.650;2023-06-24T12:40:52;43.20;27.90
12704;DHT22;6416;52.182;7.650;2023-06-24T12:43:17;43.40;27.20
12704;DHT22;6416;52.182;7.650;2023-06-24T12:45:43;43.40;26.10
12704;DHT22;6416;52.182;7.650;2023-06-24T12:48:09;43.40;25.60
12704;DHT22;6416;52.182;7.650;2023-06-24T12:50:35;43.30;25.40
12704;DHT22;6416;52.182;7.650;2023-06-24T12:53:01;43.10;25.20
12704;DHT22;6416;52.182;7.650;2023-06-24T12:55:27;43.00;24.80
12704;DHT22;6416;52.182;7.650;2023-06-24T12:57:53;42.70;24.40
12704;DHT22;6416;52.182;7.650;2023-06-24T13:00:22;42.40;24.60
12704;DHT22;6416;52.182;7.650;2023-06-24T13:02:49;41.90;25.10
12704;DHT22;6416;52.182;7.650;2023-06-24T13:05:15;41.50;25.20
12704;DHT22;6416;52.182;7.650;2023-06-24T13:07:40;41.10;25.60
12704;DHT22;6416;52.182;7.650;2023-06-24T13:10:06;40.70;25.50
12704;DHT22;6416;52.182;7.650;2023-06-24T13:12:33;40.40;25.60
12704;DHT22;6416;52.182;7.650;2023-06-24T13:14:58;39.90;26.10
12704;DHT22;6416;52.182;7.650;2023-06-24T13:17:25;39.70;26.10
12704;DHT22;6416;52.182;7.650;2023-06-24T13:19:51;39.40;26.30
12704;DHT22;6416;52.182;7.650;2023-06-24T13:22:17;39.10;26.30
12704;DHT22;6416;52.182;7.650;2023-06-24T13:24:43;38.90;26.50
12704;DHT22;6416;52.182;7.650;2023-06-24T13:27:08;38.70;26.80
12704;DHT22;6416;52.182;7.650;2023-06-24T13:29:34;38.50;26.90
12704;DHT22;6416;52.182;7.650;2023-06-24T13:31:59;38.30;26.60
12704;DHT22;6416;52.182;7.650;2023-06-24T13:34:25;38.10;27.20
12704;DHT22;6416;52.182;7.650;2023-06-24T13:36:50;38.00;27.00
12704;DHT22;6416;52.182;7.650;2023-06-24T13:39:16;37.80;27.00
12704;DHT22;6416;52.182;7.650;2023-06-24T13:41:41;37.70;27.10
12704;DHT22;6416;52.182;7.650;2023-06-24T13:44:07;37.60;27.20
12704;DHT22;6416;52.182;7.650;2023-06-24T13:46:33;37.40;26.70
12704;DHT22;6416;52.182;7.650;2023-06-24T13:48:59;37.30;27.00
12704;DHT22;6416;52.182;7.650;2023-06-24T13:51:25;37.20;27.40
12704;DHT22;6416;52.182;7.650;2023-06-24T13:53:52;37.10;27.30
12704;DHT22;6416;52.182;7.650;2023-06-24T13:56:19;37.00;27.60
12704;DHT22;6416;52.182;7.650;2023-06-24T13:58:46;36.90;27.60
12704;DHT22;6416;52.182;7.650;2023-06-24T14:01:11;36.80;27.40
12704;DHT22;6416;52.182;7.650;2023-06-24T14:03:37;36.80;27.90
12704;DHT22;6416;52.182;7.650;2023-06-24T14:06:03;36.70;27.70
12704;DHT22;6416;52.182;7.650;2023-06-24T14:08:29;36.60;27.70
12704;DHT22;6416;52.182;7.650;2023-06-24T14:10:56;36.60;27.50
12704;DHT22;6416;52.182;7.650;2023-06-24T14:13:22;36.50;27.30
12704;DHT22;6416;52.182;7.650;2023-06-24T14:15:47;36.50;27.40
12704;DHT22;6416;52.182;7.650;2023-06-24T14:18:13;36.30;27.50
12704;DHT22;6416;52.182;7.650;2023-06-24T14:20:38;36.20;27.70
12704;DHT22;6416;52.182;7.650;2023-06-24T14:23:05;36.10;27.80
12704;DHT22;6416;52.182;7.650;2023-06-24T14:25:31;36.00;27.70
12704;DHT22;6416;52.182;7.650;2023-06-24T14:27:56;35.90;28.00
12704;DHT22;6416;52.182;7.650;2023-06-24T14:30:22;35.70;28.60
12704;DHT22;6416;52.182;7.650;2023-06-24T14:32:47;35.60;28.90
12704;DHT22;6416;52.182;7.650;2023-06-24T14:35:13;35.50;29.30
12704;DHT22;6416;52.182;7.650;2023-06-24T14:37:38;35.50;29.50
12704;DHT22;6416;52.182;7.650;2023-06-24T14:40:04;35.40;29.50
12704;DHT22;6416;52.182;7.650;2023-06-24T14:42:30;35.40;29.70
12704;DHT22;6416;52.182;7.650;2023-06-24T14:44:55;35.30;29.90
12704;DHT22;6416;52.182;7.650;2023-06-24T14:47:21;35.20;29.90
12704;DHT22;6416;52.182;7.650;2023-06-24T14:49:46;35.20;29.70
12704;DHT22;6416;52.182;7.650;2023-06-24T14:52:14;35.20;29.70
12704;DHT22;6416;52.182;7.650;2023-06-24T14:54:40;35.10;29.20
12704;DHT22;6416;52.182;7.650;2023-06-24T14:57:05;35.00;29.10
12704;DHT22;6416;52.182;7.650;2023-06-24T14:59:31;34.90;29.00
12704;DHT22;6416;52.182;7.650;2023-06-24T15:01:56;34.90;29.20
12704;DHT22;6416;52.182;7.650;2023-06-24T15:04:22;34.80;29.60
12704;DHT22;6416;52.182;7.650;2023-06-24T15:06:47;34.80;29.90
12704;DHT22;6416;52.182;7.650;2023-06-24T15:09:13;34.70;29.90
12704;DHT22;6416;52.182;7.650;2023-06-24T15:11:38;34.70;30.10
12704;DHT22;6416;52.182;7.650;2023-06-24T15:14:04;34.60;30.00
12704;DHT22;6416;52.182;7.650;2023-06-24T15:16:29;34.60;30.00
12704;DHT22;6416;52.182;7.650;2023-06-24T15:18:55;34.60;29.80
12704;DHT22;6416;52.182;7.650;2023-06-24T15:21:20;34.50;30.00
12704;DHT22;6416;52.182;7.650;2023-06-24T15:23:46;34.50;30.00
12704;DHT22;6416;52.182;7.650;2023-06-24T15:26:12;34.40;29.90
12704;DHT22;6416;52.182;7.650;2023-06-24T15:28:37;34.30;29.90
12704;DHT22;6416;52.182;7.650;2023-06-24T15:31:03;34.30;29.70
12704;DHT22;6416;52.182;7.650;2023-06-24T15:33:28;34.20;29.70
12704;DHT22;6416;52.182;7.650;2023-06-24T15:35:54;34.20;29.80
12704;DHT22;6416;52.182;7.650;2023-06-24T15:38:20;34.10;29.90
12704;DHT22;6416;52.182;7.650;2023-06-24T15:40:45;34.00;29.90
12704;DHT22;6416;52.182;7.650;2023-06-24T15:43:11;34.00;29.80
12704;DHT22;6416;52.182;7.650;2023-06-24T15:45:37;33.90;29.90
12704;DHT22;6416;52.182;7.650;2023-06-24T15:48:03;33.80;30.00
12704;DHT22;6416;52.182;7.650;2023-06-24T15:50:29;33.80;30.30
12704;DHT22;6416;52.182;7.650;2023-06-24T15:52:55;33.80;30.00